createdAt,value
2022-09-23T00:01:22.461Z,6.87
2022-09-23T00:03:50.278Z,6.90
2022-09-23T00:06:21.531Z,6.90
2022-09-23T00:08:50.239Z,6.91
2022-09-23T00:11:26.424Z,6.93
2022-09-23T00:13:56.884Z,6.93
2022-09-23T00:16:28.504Z,6.93
2022-09-23T00:18:56.902Z,6.93
2022-09-23T00:21:25.189Z,6.93
2022-09-23T00:23:53.667Z,6.92
2022-09-23T00:26:23.043Z,6.91
2022-09-23T00:28:51.780Z,6.91
2022-09-23T00:31:25.890Z,6.86
2022-09-23T00:33:59.291Z,6.84
2022-09-23T00:36:28.543Z,6.82
2022-09-23T00:38:56.223Z,6.80
2022-09-23T00:41:25.147Z,6.81
2022-09-23T00:43:56.668Z,6.82
2022-09-23T00:46:33.940Z,6.83
2022-09-23T00:49:06.526Z,6.82
2022-09-23T00:51:39.512Z,6.79
2022-09-23T00:54:07.919Z,6.71
2022-09-23T00:56:38.423Z,6.65
2022-09-23T00:59:09.684Z,6.60
2022-09-23T01:01:39.015Z,6.56
2022-09-23T01:04:07.968Z,6.53
2022-09-23T01:06:36.151Z,6.46
2022-09-23T01:09:04.311Z,6.38
2022-09-23T01:11:51.081Z,6.29
2022-09-23T01:14:48.700Z,6.18
2022-09-23T01:17:29.378Z,6.09
2022-09-23T01:20:29.010Z,6.05
2022-09-23T01:23:17.818Z,5.98
2022-09-23T01:26:08.006Z,5.92
2022-09-23T01:28:54.730Z,5.88
2022-09-23T01:31:42.860Z,5.85
2022-09-23T01:34:25.536Z,5.81
2022-09-23T01:37:03.282Z,5.76
2022-09-23T01:39:38.844Z,5.71
2022-09-23T01:42:10.596Z,5.69
2022-09-23T01:44:48.783Z,5.70
2022-09-23T01:47:22.784Z,5.70
2022-09-23T01:50:00.097Z,5.70
2022-09-23T01:52:35.922Z,5.71
2022-09-23T01:55:23.882Z,5.69
2022-09-23T01:58:08.373Z,5.64
2022-09-23T02:00:42.687Z,5.61
2022-09-23T02:03:47.243Z,5.54
2022-09-23T02:06:23.215Z,5.47
2022-09-23T02:09:02.819Z,5.43
2022-09-23T02:11:36.209Z,5.36
2022-09-23T02:14:27.558Z,5.29
2022-09-23T02:17:00.737Z,5.24
2022-09-23T02:19:55.524Z,5.24
2022-09-23T02:22:30.716Z,5.25
2022-09-23T02:24:58.805Z,5.29
2022-09-23T02:27:36.293Z,5.33
2022-09-23T02:30:12.025Z,5.37
2022-09-23T02:33:02.631Z,5.42
2022-09-23T02:35:53.228Z,5.47
2022-09-23T02:38:44.649Z,5.53
2022-09-23T02:41:32.615Z,5.62
2022-09-23T02:44:06.325Z,5.68
2022-09-23T02:46:35.456Z,5.73
2022-09-23T02:49:13.529Z,5.80
2022-09-23T02:51:41.603Z,5.80
2022-09-23T02:54:14.998Z,5.80
2022-09-23T02:56:42.947Z,5.76
2022-09-23T02:59:12.536Z,5.75
2022-09-23T03:01:56.592Z,5.76
2022-09-23T03:04:40.325Z,5.80
2022-09-23T03:07:33.562Z,5.83
2022-09-23T03:10:33.186Z,5.86
2022-09-23T03:13:14.714Z,5.91
2022-09-23T03:16:05.185Z,5.96
2022-09-23T03:18:42.693Z,6.02
2022-09-23T03:21:33.683Z,6.08
2022-09-23T03:24:06.905Z,6.13
2022-09-23T03:26:37.615Z,6.15
2022-09-23T03:29:11.357Z,6.12
2022-09-23T03:31:42.506Z,6.04
2022-09-23T03:34:16.235Z,5.93
2022-09-23T03:37:26.193Z,5.85
2022-09-23T03:40:13.748Z,5.72
2022-09-23T03:42:42.010Z,5.61
2022-09-23T03:45:18.430Z,5.55
2022-09-23T03:47:46.130Z,5.47
2022-09-23T03:50:14.110Z,5.39
2022-09-23T03:52:41.745Z,5.33
2022-09-23T03:55:11.379Z,5.29
2022-09-23T03:57:39.630Z,5.22
2022-09-23T04:00:08.008Z,5.15
2022-09-23T04:02:41.871Z,5.04
2022-09-23T04:05:11.487Z,4.93
2022-09-23T04:07:39.498Z,4.83
2022-09-23T04:10:08.034Z,4.79
2022-09-23T04:12:37.840Z,4.75
2022-09-23T04:15:06.452Z,4.71
2022-09-23T04:17:34.411Z,4.68
2022-09-23T04:20:02.535Z,4.61
2022-09-23T04:22:31.059Z,4.55
2022-09-23T04:24:58.738Z,4.52
2022-09-23T04:27:26.586Z,4.54
2022-09-23T04:29:54.324Z,4.49
2022-09-23T04:32:22.033Z,4.46
2022-09-23T04:34:49.747Z,4.48
2022-09-23T04:37:17.468Z,4.54
2022-09-23T04:39:45.148Z,4.58
2022-09-23T04:42:12.838Z,4.61
2022-09-23T04:44:40.692Z,4.65
2022-09-23T04:47:08.453Z,4.68
2022-09-23T04:49:36.177Z,4.67
2022-09-23T04:52:05.336Z,4.64
2022-09-23T04:54:33.116Z,4.64
2022-09-23T04:57:00.855Z,4.62
2022-09-23T04:59:28.648Z,4.60
2022-09-23T05:01:56.386Z,4.60
2022-09-23T05:04:24.585Z,4.56
2022-09-23T05:06:52.268Z,4.56
2022-09-23T05:09:20.030Z,4.57
2022-09-23T05:11:48.266Z,4.62
2022-09-23T05:14:16.057Z,4.64
2022-09-23T05:16:43.906Z,4.69
2022-09-23T05:19:13.598Z,4.72
2022-09-23T05:21:41.619Z,4.73
2022-09-23T05:24:09.863Z,4.77
2022-09-23T05:26:38.463Z,4.81
2022-09-23T05:29:06.548Z,4.86
2022-09-23T05:31:35.097Z,4.89
2022-09-23T05:34:05.211Z,4.93
2022-09-23T05:36:38.708Z,4.98
2022-09-23T05:39:08.748Z,5.06
2022-09-23T05:41:36.732Z,5.17
2022-09-23T05:44:05.027Z,5.27
2022-09-23T05:46:33.364Z,5.39
2022-09-23T05:49:03.623Z,5.48
2022-09-23T05:51:34.326Z,5.56
2022-09-23T05:54:04.412Z,5.65
2022-09-23T05:56:34.843Z,5.66
2022-09-23T05:59:04.071Z,5.71
2022-09-23T06:01:35.413Z,5.77
2022-09-23T06:04:05.786Z,5.68
2022-09-23T06:06:39.572Z,5.66
2022-09-23T06:09:11.702Z,5.68
2022-09-23T06:11:41.954Z,5.69
2022-09-23T06:14:12.859Z,5.75
2022-09-23T06:16:41.396Z,5.83
2022-09-23T06:19:10.495Z,5.88
2022-09-23T06:21:40.547Z,5.94
2022-09-23T06:24:21.308Z,6.05
2022-09-23T06:27:09.850Z,6.18
2022-09-23T06:29:40.130Z,6.24
2022-09-23T06:32:09.077Z,6.29
2022-09-23T06:34:51.555Z,6.30
2022-09-23T06:37:21.000Z,6.26
2022-09-23T06:39:54.890Z,6.28
2022-09-23T06:42:22.988Z,6.34
2022-09-23T06:44:52.648Z,6.42
2022-09-23T06:47:22.929Z,6.44
2022-09-23T06:49:51.557Z,6.48
2022-09-23T06:52:21.221Z,6.59
2022-09-23T06:54:49.115Z,6.70
2022-09-23T06:57:16.957Z,6.78
2022-09-23T06:59:44.906Z,6.82
2022-09-23T07:02:13.458Z,6.89
2022-09-23T07:04:41.549Z,6.96
2022-09-23T07:07:11.536Z,6.99
2022-09-23T07:09:39.539Z,7.07
2022-09-23T07:12:08.265Z,7.18
2022-09-23T07:14:36.191Z,7.31
2022-09-23T07:17:04.322Z,7.45
2022-09-23T07:19:32.523Z,7.59
2022-09-23T07:22:00.453Z,7.71
2022-09-23T07:24:28.330Z,7.84
2022-09-23T07:26:56.217Z,7.95
2022-09-23T07:29:24.052Z,8.05
2022-09-23T07:31:52.690Z,8.14
2022-09-23T07:34:21.922Z,8.26
2022-09-23T07:36:50.308Z,8.37
2022-09-23T07:39:18.197Z,8.49
2022-09-23T07:41:46.003Z,8.60
2022-09-23T07:44:13.884Z,8.73
2022-09-23T07:46:41.995Z,8.88
2022-09-23T07:49:10.691Z,9.03
2022-09-23T07:51:40.487Z,9.14
2022-09-23T07:54:13.052Z,9.23
2022-09-23T07:56:42.450Z,9.30
2022-09-23T07:59:18.079Z,9.39
2022-09-23T08:01:49.103Z,9.51
2022-09-23T08:04:26.849Z,9.61
2022-09-23T08:07:06.128Z,9.68
2022-09-23T08:09:41.633Z,9.75
2022-09-23T08:12:18.881Z,9.81
2022-09-23T08:14:46.726Z,9.89
2022-09-23T08:17:14.959Z,9.97
2022-09-23T08:19:42.816Z,10.07
2022-09-23T08:22:12.113Z,10.18
2022-09-23T08:24:39.945Z,10.27
2022-09-23T08:27:08.129Z,10.34
2022-09-23T08:29:36.019Z,10.44
2022-09-23T08:32:03.947Z,10.54
2022-09-23T08:34:31.776Z,10.63
2022-09-23T08:36:59.625Z,10.76
2022-09-23T08:39:27.489Z,10.94
2022-09-23T08:42:12.470Z,11.05
2022-09-23T08:44:58.997Z,11.11
2022-09-23T08:47:43.836Z,11.20
2022-09-23T08:50:18.147Z,11.31
2022-09-23T08:53:04.759Z,11.45
2022-09-23T08:55:50.856Z,11.62
2022-09-23T08:58:51.203Z,11.72
2022-09-23T09:01:41.554Z,11.87
2022-09-23T09:04:18.569Z,12.01
2022-09-23T09:10:09.149Z,11.95
2022-09-23T09:12:59.373Z,12.05
2022-09-23T09:15:28.542Z,12.15
2022-09-23T09:18:02.464Z,12.25
2022-09-23T09:20:35.035Z,12.33
2022-09-23T09:23:23.382Z,12.46
2022-09-23T09:25:54.443Z,12.68
2022-09-23T09:28:31.007Z,12.77
2022-09-23T09:31:26.847Z,12.66
2022-09-23T09:33:59.543Z,12.50
2022-09-23T09:36:38.357Z,12.70
2022-09-23T09:39:06.955Z,12.95
2022-09-23T09:41:35.003Z,13.20
2022-09-23T09:44:19.660Z,13.40
2022-09-23T09:47:20.919Z,13.70
2022-09-23T09:49:59.107Z,13.92
2022-09-23T09:52:29.711Z,14.11
2022-09-23T09:55:14.270Z,13.98
2022-09-23T09:57:52.325Z,13.62
2022-09-23T10:00:26.920Z,13.34
2022-09-23T10:03:04.651Z,13.15
2022-09-23T10:05:51.768Z,12.96
2022-09-23T10:08:37.918Z,12.82
2022-09-23T10:11:21.083Z,12.86
2022-09-23T10:14:26.480Z,13.07
2022-09-23T10:17:05.900Z,13.01
2022-09-23T10:19:41.984Z,12.97
2022-09-23T10:22:32.129Z,12.98
2022-09-23T10:25:07.608Z,13.14
2022-09-23T10:27:37.066Z,13.37
2022-09-23T10:30:21.843Z,13.69
2022-09-23T10:32:53.234Z,14.00
2022-09-23T10:35:24.462Z,14.13
2022-09-23T10:37:59.899Z,14.21
2022-09-23T10:44:11.560Z,14.11
2022-09-23T10:46:53.045Z,13.81
2022-09-23T10:49:35.817Z,13.62
2022-09-23T10:52:36.776Z,13.44
2022-09-23T10:55:29.064Z,13.30
2022-09-23T10:58:17.729Z,13.19
2022-09-23T11:00:52.271Z,13.12
2022-09-23T11:03:42.427Z,13.03
2022-09-23T11:06:21.106Z,12.94
2022-09-23T11:09:05.397Z,12.94
2022-09-23T11:12:02.227Z,12.90
2022-09-23T11:14:53.011Z,12.77
2022-09-23T11:17:39.561Z,12.69
2022-09-23T11:20:30.253Z,12.87
2022-09-23T11:23:37.913Z,12.90
2022-09-23T11:26:20.639Z,13.33
2022-09-23T11:29:20.372Z,13.82
2022-09-23T11:32:14.318Z,14.26
2022-09-23T11:34:42.005Z,14.65
2022-09-23T11:37:22.141Z,14.91
2022-09-23T11:39:57.674Z,15.01
2022-09-23T11:42:32.231Z,15.16
2022-09-23T11:45:15.031Z,15.05
2022-09-23T11:47:50.382Z,14.72
2022-09-23T11:50:29.587Z,14.71
2022-09-23T11:53:36.813Z,15.01
2022-09-23T11:56:27.520Z,15.23
2022-09-23T11:59:39.678Z,15.39
2022-09-23T12:02:33.599Z,15.74
2022-09-23T12:05:09.559Z,16.05
2022-09-23T12:08:06.575Z,16.27
2022-09-23T12:10:55.923Z,16.68
2022-09-23T12:13:47.373Z,16.90
2022-09-23T12:16:37.335Z,17.13
2022-09-23T12:19:37.199Z,17.31
2022-09-23T12:22:24.065Z,17.39
2022-09-23T12:25:10.363Z,17.68
2022-09-23T12:27:45.607Z,18.11
2022-09-23T12:30:23.170Z,18.22
2022-09-23T12:32:51.320Z,18.25
2022-09-23T12:35:38.527Z,18.11
2022-09-23T12:38:38.331Z,17.88
2022-09-23T12:41:19.194Z,17.58
2022-09-23T12:44:21.136Z,17.08
2022-09-23T12:47:14.663Z,16.67
2022-09-23T12:49:43.720Z,16.24
2022-09-23T12:52:11.752Z,15.96
2022-09-23T12:54:41.402Z,15.73
2022-09-23T12:57:34.836Z,15.53
2022-09-23T13:00:12.879Z,15.26
2022-09-23T13:02:42.912Z,15.42
2022-09-23T13:05:36.564Z,16.06
2022-09-23T13:08:23.082Z,16.68
2022-09-23T13:11:00.182Z,17.18
2022-09-23T13:13:32.477Z,17.43
2022-09-23T13:16:16.391Z,17.53
2022-09-23T13:18:52.603Z,17.69
2022-09-23T13:21:42.103Z,17.77
2022-09-23T13:24:12.971Z,17.72
2022-09-23T13:26:46.644Z,18.00
2022-09-23T13:29:26.827Z,18.04
2022-09-23T13:31:58.143Z,17.72
2022-09-23T13:34:32.791Z,17.27
2022-09-23T13:37:37.911Z,16.90
2022-09-23T13:40:25.401Z,16.77
2022-09-23T13:43:03.175Z,16.91
2022-09-23T13:45:36.182Z,17.28
2022-09-23T13:48:15.221Z,17.26
2022-09-23T13:50:48.539Z,17.11
2022-09-23T13:53:23.276Z,17.07
2022-09-23T13:56:16.367Z,16.97
2022-09-23T13:58:44.289Z,16.85
2022-09-23T14:01:36.183Z,16.79
2022-09-23T14:04:04.130Z,16.82
2022-09-23T14:06:38.353Z,16.92
2022-09-23T14:09:06.644Z,17.31
2022-09-23T14:11:35.516Z,17.64
2022-09-23T14:14:08.115Z,17.65
2022-09-23T14:16:39.658Z,17.20
2022-09-23T14:19:17.517Z,17.14
2022-09-23T14:21:52.927Z,17.55
2022-09-23T14:24:30.903Z,17.92
2022-09-23T14:27:04.375Z,17.74
2022-09-23T14:29:44.154Z,17.40
2022-09-23T14:32:17.584Z,17.02
2022-09-23T14:35:02.685Z,16.57
2022-09-23T14:37:47.125Z,16.07
2022-09-23T14:40:21.541Z,15.69
2022-09-23T14:42:52.488Z,15.34
2022-09-23T14:45:24.714Z,15.01
2022-09-23T14:48:18.751Z,14.84
2022-09-23T14:50:48.549Z,14.71
2022-09-23T14:53:22.745Z,14.64
2022-09-23T14:55:59.671Z,14.94
2022-09-23T14:58:28.746Z,15.60
2022-09-23T15:01:00.337Z,16.16
2022-09-23T15:03:28.928Z,16.59
2022-09-23T15:06:09.245Z,16.89
2022-09-23T15:08:37.244Z,17.31
2022-09-23T15:11:08.379Z,17.64
2022-09-23T15:13:44.230Z,17.83
2022-09-23T15:16:15.344Z,18.09
2022-09-23T15:18:46.366Z,18.47
2022-09-23T15:29:09.666Z,19.40
2022-09-23T15:31:37.700Z,19.62
2022-09-23T15:34:06.066Z,19.77
2022-09-23T15:36:34.917Z,19.60
2022-09-23T15:39:05.968Z,19.09
2022-09-23T15:41:34.180Z,18.67
2022-09-23T15:44:29.876Z,18.33
2022-09-23T15:47:01.204Z,17.87
2022-09-23T15:49:33.956Z,17.51
2022-09-23T15:52:04.140Z,17.14
2022-09-23T15:54:33.813Z,16.84
2022-09-23T15:57:02.088Z,16.58
2022-09-23T15:59:33.334Z,16.32
2022-09-23T16:02:07.922Z,16.04
2022-09-23T16:04:36.047Z,15.69
2022-09-23T16:07:05.627Z,15.25
2022-09-23T16:09:33.574Z,14.78
2022-09-23T16:12:03.265Z,14.41
2022-09-23T16:14:31.094Z,14.17
2022-09-23T16:16:59.030Z,14.07
2022-09-23T16:19:27.659Z,13.99
2022-09-23T16:21:55.581Z,13.91
2022-09-23T16:24:28.003Z,13.80
2022-09-23T16:27:00.007Z,13.75
2022-09-23T16:29:27.938Z,13.71
2022-09-23T16:31:55.892Z,13.65
2022-09-23T16:34:23.887Z,13.57
2022-09-23T16:36:51.763Z,13.47
2022-09-23T16:39:20.622Z,13.42
2022-09-23T16:41:48.491Z,13.35
2022-09-23T16:44:16.447Z,13.27
2022-09-23T16:46:44.355Z,13.22
2022-09-23T16:49:13.499Z,13.16
2022-09-23T16:51:41.386Z,13.10
2022-09-23T16:54:12.260Z,13.00
2022-09-23T16:56:44.254Z,12.92
2022-09-23T16:59:13.666Z,12.85
2022-09-23T17:01:58.308Z,12.80
2022-09-23T17:04:27.641Z,12.71
2022-09-23T17:06:56.529Z,12.66
2022-09-23T17:09:27.447Z,12.62
2022-09-23T17:11:59.819Z,12.58
2022-09-23T17:14:31.081Z,12.53
2022-09-23T17:16:59.047Z,12.50
2022-09-23T17:19:27.018Z,12.40
2022-09-23T17:21:54.917Z,12.17
2022-09-23T17:24:22.814Z,12.01
2022-09-23T17:26:53.319Z,11.86
2022-09-23T17:29:21.758Z,11.74
2022-09-23T17:31:49.971Z,11.68
2022-09-23T17:34:21.386Z,11.69
2022-09-23T17:36:49.628Z,11.68
2022-09-23T17:39:17.915Z,11.68
2022-09-23T17:41:45.747Z,11.71
2022-09-23T17:44:15.544Z,11.71
2022-09-23T17:46:43.718Z,11.72
2022-09-23T17:49:12.175Z,11.71
2022-09-23T17:51:40.538Z,11.71
2022-09-23T17:54:08.916Z,11.71
2022-09-23T17:56:36.804Z,11.71
2022-09-23T17:59:04.709Z,11.69
2022-09-23T18:01:32.968Z,11.68
2022-09-23T18:04:05.651Z,11.63
2022-09-23T18:06:35.801Z,11.61
2022-09-23T18:09:06.675Z,11.59
2022-09-23T18:11:40.092Z,11.57
2022-09-23T18:14:23.031Z,11.54
2022-09-23T18:16:53.634Z,11.49
2022-09-23T18:19:24.559Z,11.40
2022-09-23T18:21:56.381Z,11.32
2022-09-23T18:24:32.214Z,11.18
2022-09-23T18:27:02.291Z,11.05
2022-09-23T18:29:30.387Z,10.92
2022-09-23T18:31:59.443Z,10.80
2022-09-23T18:34:28.883Z,10.69
2022-09-23T18:36:57.048Z,10.60
2022-09-23T18:39:25.053Z,10.52
2022-09-23T18:41:53.098Z,10.45
2022-09-23T18:44:21.147Z,10.44
2022-09-23T18:46:49.074Z,10.44
2022-09-23T18:49:32.871Z,10.43
2022-09-23T18:52:00.747Z,10.35
2022-09-23T18:54:29.052Z,10.29
2022-09-23T18:56:57.712Z,10.26
2022-09-23T18:59:29.674Z,10.24
2022-09-23T19:01:59.095Z,10.24
2022-09-23T19:04:27.359Z,10.25
2022-09-23T19:06:57.241Z,10.29
2022-09-23T19:09:25.770Z,10.29
2022-09-23T19:11:53.804Z,10.26
2022-09-23T19:14:22.347Z,10.25
2022-09-23T19:16:50.944Z,10.20
2022-09-23T19:19:19.155Z,10.15
2022-09-23T19:21:47.422Z,10.09
2022-09-23T19:24:20.562Z,10.02
2022-09-23T19:26:50.325Z,9.94
2022-09-23T19:29:22.144Z,9.90
2022-09-23T19:31:51.226Z,9.89
2022-09-23T19:34:23.907Z,9.86
2022-09-23T19:36:55.905Z,9.84
2022-09-23T19:39:26.932Z,9.82
2022-09-23T19:41:58.817Z,9.81
2022-09-23T19:44:27.345Z,9.83
2022-09-23T19:46:57.284Z,9.86
2022-09-23T19:49:26.089Z,9.84
2022-09-23T19:51:55.942Z,9.79
2022-09-23T19:54:27.351Z,9.73
2022-09-23T19:56:55.670Z,9.69
2022-09-23T19:59:23.626Z,9.69
2022-09-23T20:01:51.643Z,9.72
2022-09-23T20:04:20.267Z,9.74
2022-09-23T20:06:49.586Z,9.72
2022-09-23T20:09:17.515Z,9.71
2022-09-23T20:11:45.438Z,9.70
2022-09-23T20:14:13.765Z,9.69
2022-09-23T20:16:41.911Z,9.67
2022-09-23T20:19:12.977Z,9.64
2022-09-23T20:21:40.847Z,9.59
2022-09-23T20:24:09.754Z,9.54
2022-09-23T20:26:53.974Z,9.50
2022-09-23T20:29:22.493Z,9.46
2022-09-23T20:31:50.561Z,9.42
2022-09-23T20:34:18.557Z,9.36
2022-09-23T20:36:46.454Z,9.29
2022-09-23T20:39:14.362Z,9.23
2022-09-23T20:41:42.252Z,9.19
2022-09-23T20:44:14.255Z,9.16
2022-09-23T20:46:48.451Z,9.12
2022-09-23T20:49:17.734Z,9.08
2022-09-23T20:51:48.680Z,9.05
2022-09-23T20:54:20.397Z,9.01
2022-09-23T20:56:48.319Z,8.99
2022-09-23T20:59:18.199Z,8.97
2022-09-23T21:01:46.642Z,8.96
2022-09-23T21:04:15.072Z,8.93
2022-09-23T21:06:42.973Z,8.89
2022-09-23T21:09:10.824Z,8.85
2022-09-23T21:11:38.820Z,8.79
2022-09-23T21:14:07.086Z,8.73
2022-09-23T21:16:35.343Z,8.70
2022-09-23T21:19:03.917Z,8.69
2022-09-23T21:21:31.951Z,8.65
2022-09-23T21:24:24.462Z,8.56
2022-09-23T21:26:50.301Z,8.46
2022-09-23T21:29:18.393Z,8.41
2022-09-23T21:31:48.495Z,8.40
2022-09-23T21:34:16.905Z,8.38
2022-09-23T21:36:46.214Z,8.32
2022-09-23T21:39:14.703Z,8.28
2022-09-23T21:41:42.596Z,8.24
2022-09-23T21:44:12.075Z,8.23
2022-09-23T21:46:40.062Z,8.24
2022-09-23T21:49:09.159Z,8.23
2022-09-23T21:51:41.117Z,8.22
2022-09-23T21:54:15.920Z,8.23
2022-09-23T21:56:44.115Z,8.22
2022-09-23T21:59:12.377Z,8.20
2022-09-23T22:01:44.477Z,8.17
2022-09-23T22:04:18.067Z,8.14
2022-09-23T22:06:46.831Z,8.11
2022-09-23T22:09:18.617Z,8.12
2022-09-23T22:12:03.037Z,8.13
2022-09-23T22:14:31.324Z,8.11
2022-09-23T22:17:04.457Z,8.09
2022-09-23T22:19:42.687Z,8.05
2022-09-23T22:22:17.832Z,8.02
2022-09-23T22:24:47.695Z,8.00
2022-09-23T22:27:18.886Z,7.97
2022-09-23T22:30:03.373Z,7.95
2022-09-23T22:32:52.847Z,7.93
2022-09-23T22:35:22.428Z,7.91
2022-09-23T22:37:50.428Z,7.92
2022-09-23T22:40:18.653Z,7.93
2022-09-23T22:42:46.715Z,7.94
2022-09-23T22:45:14.900Z,7.93
2022-09-23T22:47:45.544Z,7.92
2022-09-23T22:50:14.963Z,7.91
2022-09-23T22:52:43.826Z,7.90
2022-09-23T22:55:12.452Z,7.90
2022-09-23T22:57:40.736Z,7.86
2022-09-23T23:00:09.944Z,7.83
2022-09-23T23:02:37.795Z,7.81
2022-09-23T23:05:06.279Z,7.78
2022-09-23T23:07:35.073Z,7.76
2022-09-23T23:10:04.650Z,7.76
2022-09-23T23:12:33.557Z,7.76
2022-09-23T23:15:01.495Z,7.78
2022-09-23T23:17:29.912Z,7.78
2022-09-23T23:19:58.053Z,7.77
2022-09-23T23:22:28.525Z,7.73
2022-09-23T23:24:56.934Z,7.69
2022-09-23T23:27:24.830Z,7.65
2022-09-23T23:29:52.728Z,7.61
2022-09-23T23:32:20.566Z,7.61
2022-09-23T23:34:48.418Z,7.59
2022-09-23T23:37:20.630Z,7.56
2022-09-23T23:39:49.071Z,7.55
2022-09-23T23:42:17.675Z,7.55
2022-09-23T23:44:45.887Z,7.58
2022-09-23T23:47:13.813Z,7.57
2022-09-23T23:49:41.696Z,7.58
2022-09-23T23:52:09.633Z,7.58
2022-09-23T23:54:37.861Z,7.53
2022-09-23T23:57:05.913Z,7.49
2022-09-23T23:59:34.591Z,7.47
